createdAt,value
2023-01-04T00:02:05.060Z,92
2023-01-04T00:04:06.456Z,92
2023-01-04T00:08:06.397Z,92
2023-01-04T00:10:09.816Z,92
2023-01-04T00:12:09.854Z,92
2023-01-04T00:14:06.720Z,92
2023-01-04T00:20:09.534Z,92
2023-01-04T00:22:06.495Z,92
2023-01-04T00:24:09.364Z,92
2023-01-04T00:26:06.025Z,92
2023-01-04T00:28:06.573Z,92
2023-01-04T00:32:06.445Z,92
2023-01-04T00:34:06.663Z,92
2023-01-04T00:36:09.642Z,92
2023-01-04T00:38:06.472Z,92
2023-01-04T00:40:06.432Z,92
2023-01-04T00:42:09.362Z,92
2023-01-04T00:44:06.469Z,92
2023-01-04T00:46:06.568Z,92
2023-01-04T00:48:09.303Z,92
2023-01-04T00:50:06.741Z,92
2023-01-04T00:52:07.026Z,92
2023-01-04T00:54:10.024Z,92
2023-01-04T00:56:07.565Z,93
2023-01-04T00:58:06.390Z,93
2023-01-04T01:02:09.385Z,93
2023-01-04T01:04:08.786Z,93
2023-01-04T01:06:09.433Z,93
2023-01-04T01:08:08.051Z,93
2023-01-04T01:10:08.143Z,93
2023-01-04T01:12:09.603Z,93
2023-01-04T01:14:06.437Z,93
2023-01-04T01:16:07.761Z,93
2023-01-04T01:20:08.438Z,93
2023-01-04T01:22:06.802Z,93
2023-01-04T01:26:08.608Z,93
2023-01-04T01:28:07.713Z,93
2023-01-04T01:30:09.018Z,93
2023-01-04T01:32:06.501Z,93
2023-01-04T01:34:09.713Z,93
2023-01-04T01:36:09.132Z,92
2023-01-04T01:38:09.356Z,93
2023-01-04T01:40:06.424Z,92
2023-01-04T01:44:09.594Z,92
2023-01-04T01:46:07.161Z,92
2023-01-04T01:50:08.069Z,92
2023-01-04T01:52:06.518Z,92
2023-01-04T01:56:06.059Z,92
2023-01-04T01:58:08.940Z,92
2023-01-04T02:00:09.305Z,92
2023-01-04T02:02:08.601Z,92
2023-01-04T02:04:06.692Z,92
2023-01-04T02:06:09.365Z,92
2023-01-04T02:08:12.932Z,92
2023-01-04T02:10:09.249Z,92
2023-01-04T02:12:09.389Z,92
2023-01-04T02:16:09.173Z,92
2023-01-04T02:18:09.562Z,92
2023-01-04T02:22:08.052Z,92
2023-01-04T02:26:05.999Z,92
2023-01-04T02:28:08.908Z,92
2023-01-04T02:32:06.501Z,92
2023-01-04T02:34:09.404Z,91
2023-01-04T02:38:06.417Z,91
2023-01-04T02:40:06.423Z,91
2023-01-04T02:42:09.459Z,91
2023-01-04T02:44:09.627Z,91
2023-01-04T02:46:07.672Z,91
2023-01-04T02:52:06.409Z,91
2023-01-04T02:56:06.015Z,91
2023-01-04T02:58:06.439Z,91
2023-01-04T03:04:08.805Z,91
2023-01-04T03:08:06.471Z,91
2023-01-04T03:10:06.017Z,91
2023-01-04T03:14:31.218Z,91
2023-01-04T03:16:06.594Z,91
2023-01-04T03:20:08.567Z,91
2023-01-04T03:22:06.572Z,91
2023-01-04T03:24:08.722Z,91
2023-01-04T03:26:06.535Z,91
2023-01-04T03:28:08.863Z,91
2023-01-04T03:32:06.485Z,91
2023-01-04T03:34:06.350Z,91
2023-01-04T03:36:09.644Z,91
2023-01-04T03:38:08.034Z,91
2023-01-04T03:40:07.935Z,91
2023-01-04T03:42:08.590Z,91
2023-01-04T03:44:09.343Z,91
2023-01-04T03:46:04.408Z,91
2023-01-04T03:50:09.555Z,91
2023-01-04T03:52:06.527Z,91
2023-01-04T03:56:06.178Z,91
2023-01-04T03:58:06.413Z,91
2023-01-04T04:00:09.416Z,91
2023-01-04T04:02:06.500Z,91
2023-01-04T04:04:08.575Z,91
2023-01-04T04:06:07.977Z,91
2023-01-04T04:08:08.393Z,91
2023-01-04T04:10:08.816Z,91
2023-01-04T04:12:09.475Z,91
2023-01-04T04:14:08.226Z,91
2023-01-04T04:16:09.624Z,91
2023-01-04T04:18:08.818Z,91
2023-01-04T04:20:06.459Z,91
2023-01-04T04:22:06.482Z,91
2023-01-04T04:26:07.632Z,90
2023-01-04T04:28:09.632Z,90
2023-01-04T04:30:09.313Z,90
2023-01-04T04:32:06.618Z,90
2023-01-04T04:34:07.973Z,90
2023-01-04T04:36:09.606Z,90
2023-01-04T04:38:09.733Z,90
2023-01-04T04:40:06.461Z,90
2023-01-04T04:42:09.468Z,90
2023-01-04T04:44:06.072Z,90
2023-01-04T04:46:06.019Z,90
2023-01-04T04:50:08.210Z,90
2023-01-04T04:52:07.430Z,90
2023-01-04T04:56:09.695Z,90
2023-01-04T04:58:08.185Z,90
2023-01-04T05:00:09.310Z,90
2023-01-04T05:02:06.822Z,90
2023-01-04T05:04:06.493Z,90
2023-01-04T05:08:06.270Z,90
2023-01-04T05:10:09.815Z,90
2023-01-04T05:14:08.961Z,90
2023-01-04T05:16:06.970Z,90
2023-01-04T05:18:11.713Z,90
2023-01-04T05:20:09.352Z,90
2023-01-04T05:22:08.056Z,90
2023-01-04T05:26:09.589Z,90
2023-01-04T05:28:12.756Z,90
2023-01-04T05:32:06.543Z,90
2023-01-04T05:34:04.989Z,90
2023-01-04T05:36:09.967Z,91
2023-01-04T05:38:06.496Z,91
2023-01-04T05:40:06.710Z,91
2023-01-04T05:45:25.550Z,90
2023-01-04T05:47:23.129Z,90
2023-01-04T05:49:22.883Z,90
2023-01-04T05:51:22.880Z,90
2023-01-04T05:53:24.523Z,91
2023-01-04T05:55:22.925Z,90
2023-01-04T05:57:25.796Z,90
2023-01-04T05:59:28.891Z,90
2023-01-04T06:05:23.069Z,90
2023-01-04T06:07:22.612Z,90
2023-01-04T06:11:27.503Z,91
2023-01-04T06:13:25.816Z,90
2023-01-04T06:15:21.386Z,90
2023-01-04T06:17:26.327Z,90
2023-01-04T06:19:22.913Z,90
2023-01-04T06:21:22.906Z,90
2023-01-04T06:23:22.964Z,90
2023-01-04T06:25:22.920Z,90
2023-01-04T06:27:22.908Z,90
2023-01-04T06:29:22.989Z,90
2023-01-04T06:31:23.045Z,90
2023-01-04T06:35:22.942Z,90
2023-01-04T06:37:22.893Z,90
2023-01-04T06:39:21.420Z,90
2023-01-04T06:41:22.914Z,90
2023-01-04T06:43:22.857Z,90
2023-01-04T06:45:25.795Z,90
2023-01-04T06:47:22.925Z,90
2023-01-04T06:49:22.885Z,90
2023-01-04T06:51:22.945Z,90
2023-01-04T06:53:26.150Z,90
2023-01-04T06:55:22.968Z,90
2023-01-04T06:57:22.988Z,90
2023-01-04T06:59:22.923Z,90
2023-01-04T07:01:24.532Z,90
2023-01-04T07:03:27.676Z,90
2023-01-04T07:05:23.009Z,90
2023-01-04T07:07:22.965Z,90
2023-01-04T07:09:22.897Z,90
2023-01-04T07:11:26.351Z,90
2023-01-04T07:15:37.856Z,90
2023-01-04T07:17:28.052Z,90
2023-01-04T07:19:25.874Z,90
2023-01-04T07:23:22.998Z,90
2023-01-04T07:25:22.970Z,89
2023-01-04T07:27:22.712Z,89
2023-01-04T07:29:22.917Z,89
2023-01-04T07:31:21.520Z,89
2023-01-04T07:33:22.958Z,89
2023-01-04T07:35:22.968Z,89
2023-01-04T07:37:22.944Z,89
2023-01-04T07:39:22.900Z,89
2023-01-04T07:43:28.129Z,88
2023-01-04T07:45:22.916Z,88
2023-01-04T07:47:21.566Z,88
2023-01-04T07:49:25.851Z,88
2023-01-04T07:51:26.056Z,87
2023-01-04T07:55:22.872Z,87
2023-01-04T07:57:26.301Z,87
2023-01-04T07:59:22.940Z,88
2023-01-04T08:01:22.835Z,87
2023-01-04T08:03:22.947Z,87
2023-01-04T08:05:22.920Z,87
2023-01-04T08:07:24.514Z,87
2023-01-04T08:09:22.958Z,87
2023-01-04T08:11:22.928Z,88
2023-01-04T08:13:22.823Z,87
2023-01-04T08:15:25.815Z,87
2023-01-04T08:17:23.067Z,87
2023-01-04T08:19:22.991Z,86
2023-01-04T08:21:21.367Z,86
2023-01-04T08:23:22.951Z,86
2023-01-04T08:25:22.904Z,86
2023-01-04T08:27:26.678Z,86
2023-01-04T08:29:22.959Z,86
2023-01-04T08:31:26.216Z,86
2023-01-04T08:33:23.249Z,86
2023-01-04T08:35:22.972Z,86
2023-01-04T08:37:22.686Z,86
2023-01-04T08:39:23.007Z,86
2023-01-04T08:41:55.873Z,86
2023-01-04T08:43:22.648Z,85
2023-01-04T08:45:29.525Z,85
2023-01-04T08:47:22.906Z,86
2023-01-04T08:49:22.848Z,85
2023-01-04T08:51:22.991Z,85
2023-01-04T08:55:23.417Z,85
2023-01-04T08:59:23.045Z,86
2023-01-04T09:01:24.646Z,86
2023-01-04T09:03:22.970Z,86
2023-01-04T09:05:24.604Z,85
2023-01-04T09:07:21.445Z,85
2023-01-04T09:09:23.005Z,84
2023-01-04T09:11:20.227Z,84
2023-01-04T09:13:22.991Z,85
2023-01-04T09:15:26.097Z,85
2023-01-04T09:17:24.150Z,85
2023-01-04T09:19:22.971Z,85
2023-01-04T09:21:24.663Z,84
2023-01-04T09:23:24.523Z,84
2023-01-04T09:25:22.952Z,83
2023-01-04T09:27:22.919Z,84
2023-01-04T09:29:22.958Z,83
2023-01-04T09:31:23.070Z,83
2023-01-04T09:33:31.941Z,83
2023-01-04T09:35:26.155Z,83
2023-01-04T09:37:22.971Z,83
2023-01-04T09:39:23.908Z,83
2023-01-04T09:41:25.945Z,83
2023-01-04T09:43:29.143Z,82
2023-01-04T09:47:23.119Z,82
2023-01-04T09:49:25.794Z,82
2023-01-04T09:51:23.059Z,82
2023-01-04T09:53:25.796Z,81
2023-01-04T09:55:38.502Z,81
2023-01-04T09:59:23.210Z,81
2023-01-04T10:01:23.092Z,81
2023-01-04T10:03:26.184Z,81
2023-01-04T10:05:21.549Z,81
2023-01-04T10:07:22.970Z,80
2023-01-04T10:09:22.955Z,81
2023-01-04T10:13:23.133Z,81
2023-01-04T10:15:22.914Z,80
2023-01-04T10:17:35.872Z,81
2023-01-04T10:20:16.566Z,81
2023-01-04T10:21:32.578Z,81
2023-01-04T10:23:23.668Z,81
2023-01-04T10:25:22.949Z,81
2023-01-04T10:27:22.974Z,81
2023-01-04T10:29:23.014Z,81
2023-01-04T10:31:39.145Z,81
2023-01-04T10:33:22.977Z,81
2023-01-04T10:35:22.994Z,81
2023-01-04T10:37:22.889Z,81
2023-01-04T10:39:27.093Z,81
2023-01-04T10:41:26.353Z,81
2023-01-04T10:43:21.826Z,82
2023-01-04T10:45:21.437Z,81
2023-01-04T10:47:23.028Z,81
2023-01-04T10:49:22.971Z,81
2023-01-04T10:51:22.910Z,81
2023-01-04T10:53:22.816Z,81
2023-01-04T10:55:22.942Z,81
2023-01-04T10:57:22.974Z,81
2023-01-04T10:59:23.560Z,81
2023-01-04T11:01:22.978Z,81
2023-01-04T11:03:23.047Z,81
2023-01-04T11:05:22.958Z,81
2023-01-04T11:07:22.975Z,81
2023-01-04T11:11:22.964Z,80
2023-01-04T11:13:22.908Z,80
2023-01-04T11:17:23.029Z,80
2023-01-04T11:19:22.988Z,80
2023-01-04T11:21:23.150Z,80
2023-01-04T11:23:23.088Z,80
2023-01-04T11:25:34.291Z,80
2023-01-04T11:27:27.135Z,79
2023-01-04T11:29:23.018Z,80
2023-01-04T11:31:23.121Z,80
2023-01-04T11:33:22.987Z,79
2023-01-04T11:35:26.509Z,79
2023-01-04T11:37:23.255Z,79
2023-01-04T11:39:25.963Z,79
2023-01-04T11:41:21.568Z,79
2023-01-04T11:43:22.963Z,80
2023-01-04T11:45:29.231Z,79
2023-01-04T11:47:24.344Z,78
2023-01-04T11:49:23.247Z,78
2023-01-04T11:51:22.940Z,79
2023-01-04T11:53:22.972Z,78
2023-01-04T11:55:22.885Z,79
2023-01-04T11:57:22.990Z,78
2023-01-04T11:59:25.429Z,79
2023-01-04T12:01:29.301Z,79
2023-01-04T12:05:29.324Z,78
2023-01-04T12:07:22.998Z,78
2023-01-04T12:09:23.272Z,78
2023-01-04T12:15:22.955Z,78
2023-01-04T12:17:21.531Z,78
2023-01-04T12:19:21.490Z,78
2023-01-04T12:21:22.932Z,77
2023-01-04T12:23:22.945Z,77
2023-01-04T12:25:29.245Z,77
2023-01-04T12:27:22.839Z,77
2023-01-04T12:31:22.950Z,77
2023-01-04T12:33:22.973Z,77
2023-01-04T12:35:21.576Z,77
2023-01-04T12:37:22.732Z,77
2023-01-04T12:39:23.068Z,76
2023-01-04T12:41:22.977Z,76
2023-01-04T12:43:23.024Z,76
2023-01-04T12:45:22.929Z,77
2023-01-04T12:47:23.108Z,77
2023-01-04T12:49:22.928Z,76
2023-01-04T12:51:31.422Z,76
2023-01-04T12:53:30.529Z,75
2023-01-04T12:55:22.957Z,76
2023-01-04T12:57:22.994Z,76
2023-01-04T12:59:25.449Z,76
2023-01-04T13:01:23.052Z,76
2023-01-04T13:03:22.977Z,76
2023-01-04T13:05:54.725Z,76
2023-01-04T13:07:23.108Z,77
2023-01-04T13:09:24.725Z,77
2023-01-04T13:11:21.491Z,77
2023-01-04T13:13:26.294Z,77
2023-01-04T13:15:22.931Z,77
2023-01-04T13:17:23.005Z,77
2023-01-04T13:21:22.993Z,78
2023-01-04T13:23:24.108Z,78
2023-01-04T13:25:19.987Z,78
2023-01-04T13:27:23.007Z,78
2023-01-04T13:29:22.964Z,78
2023-01-04T13:31:22.991Z,77
2023-01-04T13:33:27.572Z,78
2023-01-04T13:35:26.143Z,78
2023-01-04T13:37:22.937Z,78
2023-01-04T13:39:29.217Z,78
2023-01-04T13:41:26.008Z,78
2023-01-04T13:43:22.936Z,79
2023-01-04T13:45:23.013Z,78
2023-01-04T13:47:23.126Z,78
2023-01-04T13:49:23.026Z,78
2023-01-04T13:51:22.982Z,79
2023-01-04T13:53:21.787Z,78
2023-01-04T13:55:23.415Z,78
2023-01-04T13:57:25.869Z,79
2023-01-04T13:59:23.009Z,78
2023-01-04T14:01:24.484Z,78
2023-01-04T14:03:22.977Z,78
2023-01-04T14:05:23.333Z,78
2023-01-04T14:07:22.925Z,78
2023-01-04T14:11:22.929Z,78
2023-01-04T14:13:22.972Z,78
2023-01-04T14:15:23.125Z,78
2023-01-04T14:17:23.056Z,78
2023-01-04T14:20:57.318Z,78
2023-01-04T14:23:02.160Z,78
2023-01-04T14:25:08.842Z,78
2023-01-04T14:26:57.544Z,78
2023-01-04T14:28:59.041Z,78
2023-01-04T14:31:01.200Z,78
2023-01-04T14:33:01.040Z,78
2023-01-04T14:34:57.364Z,78
2023-01-04T14:36:57.409Z,79
2023-01-04T14:38:57.300Z,79
2023-01-04T14:40:58.771Z,78
2023-01-04T14:42:59.643Z,79
2023-01-04T14:45:00.443Z,79
2023-01-04T14:46:57.334Z,79
2023-01-04T14:49:00.312Z,79
2023-01-04T14:51:04.370Z,79
2023-01-04T14:53:01.153Z,79
2023-01-04T14:54:57.417Z,79
2023-01-04T14:56:58.990Z,79
2023-01-04T14:59:01.246Z,79
2023-01-04T15:01:03.846Z,79
2023-01-04T15:03:01.252Z,79
2023-01-04T15:05:00.872Z,79
2023-01-04T15:06:57.677Z,80
2023-01-04T15:08:58.485Z,79
2023-01-04T15:11:00.098Z,80
2023-01-04T15:12:54.677Z,80
2023-01-04T15:14:59.936Z,80
2023-01-04T15:16:58.296Z,80
2023-01-04T15:19:00.842Z,80
2023-01-04T15:21:01.395Z,80
2023-01-04T15:23:01.168Z,80
2023-01-04T15:27:00.221Z,80
2023-01-04T15:29:01.444Z,80
2023-01-04T15:31:00.543Z,80
2023-01-04T15:32:57.826Z,80
2023-01-04T15:35:01.103Z,80
2023-01-04T15:37:00.022Z,81
2023-01-04T15:38:58.977Z,80
2023-01-04T15:40:57.397Z,80
2023-01-04T15:42:54.545Z,81
2023-01-04T15:44:58.559Z,81
2023-01-04T15:46:59.847Z,80
2023-01-04T15:48:57.396Z,81
2023-01-04T15:50:59.143Z,80
2023-01-04T15:52:54.835Z,81
2023-01-04T15:54:59.763Z,81
2023-01-04T15:57:00.579Z,81
2023-01-04T15:59:01.835Z,81
2023-01-04T16:01:06.022Z,81
2023-01-04T16:02:57.445Z,81
2023-01-04T16:04:57.417Z,81
2023-01-04T16:07:00.707Z,81
2023-01-04T16:08:57.590Z,81
2023-01-04T16:10:58.650Z,81
2023-01-04T16:12:59.377Z,81
2023-01-04T16:15:01.898Z,81
2023-01-04T16:16:56.278Z,81
2023-01-04T16:19:01.016Z,80
2023-01-04T16:20:57.612Z,80
2023-01-04T16:23:01.409Z,80
2023-01-04T16:25:11.827Z,81
2023-01-04T16:27:01.910Z,81
2023-01-04T16:28:58.002Z,81
2023-01-04T16:31:00.803Z,81
2023-01-04T16:33:00.596Z,81
2023-01-04T16:35:01.598Z,81
2023-01-04T16:36:57.639Z,81
2023-01-04T16:38:57.309Z,81
2023-01-04T16:40:59.987Z,81
2023-01-04T16:43:04.137Z,81
2023-01-04T16:44:59.570Z,81
2023-01-04T16:46:57.774Z,81
2023-01-04T16:49:00.763Z,81
2023-01-04T16:50:57.409Z,81
2023-01-04T16:52:55.953Z,81
2023-01-04T16:55:01.694Z,81
2023-01-04T16:56:57.694Z,81
2023-01-04T16:58:59.824Z,81
2023-01-04T17:00:57.727Z,81
2023-01-04T17:02:57.577Z,81
2023-01-04T17:05:01.147Z,81
2023-01-04T17:06:57.708Z,81
2023-01-04T17:08:57.677Z,83
2023-01-04T17:11:18.498Z,81
2023-01-04T17:12:54.822Z,82
2023-01-04T17:15:24.122Z,82
2023-01-04T17:17:00.478Z,81
2023-01-04T17:18:57.591Z,82
2023-01-04T17:21:01.886Z,82
2023-01-04T17:23:00.692Z,82
2023-01-04T17:24:57.785Z,82
2023-01-04T17:27:00.915Z,82
2023-01-04T17:29:00.953Z,82
2023-01-04T17:30:57.884Z,82
2023-01-04T17:32:58.452Z,82
2023-01-04T17:35:01.583Z,81
2023-01-04T17:37:02.275Z,82
2023-01-04T17:38:54.002Z,82
2023-01-04T17:41:00.950Z,81
2023-01-04T17:43:00.980Z,82
2023-01-04T17:46:59.051Z,82
2023-01-04T17:50:59.728Z,82
2023-01-04T17:52:54.322Z,82
2023-01-04T17:54:57.270Z,82
2023-01-04T17:56:57.453Z,82
2023-01-04T17:58:57.617Z,82
2023-01-04T18:00:53.980Z,82
2023-01-04T18:02:57.352Z,82
2023-01-04T18:04:57.629Z,82
2023-01-04T18:07:00.860Z,82
2023-01-04T18:08:58.893Z,82
2023-01-04T18:11:07.879Z,82
2023-01-04T18:12:58.153Z,82
2023-01-04T18:14:58.381Z,82
2023-01-04T18:17:00.959Z,82
2023-01-04T18:18:58.145Z,82
2023-01-04T18:21:03.054Z,82
2023-01-04T18:22:59.271Z,82
2023-01-04T18:24:57.504Z,82
2023-01-04T18:27:22.441Z,82
2023-01-04T18:28:57.587Z,82
2023-01-04T18:30:57.189Z,82
2023-01-04T18:33:01.700Z,82
2023-01-04T18:34:56.795Z,82
2023-01-04T18:36:57.741Z,82
2023-01-04T18:50:21.466Z,82
2023-01-04T18:52:21.513Z,82
2023-01-04T18:54:21.734Z,82
2023-01-04T18:56:21.426Z,82
2023-01-04T19:00:21.427Z,82
2023-01-04T19:02:21.795Z,82
2023-01-04T19:04:21.499Z,82
2023-01-04T19:06:21.465Z,82
2023-01-04T19:08:21.418Z,82
2023-01-04T19:10:21.486Z,82
2023-01-04T19:12:21.469Z,82
2023-01-04T19:14:21.480Z,82
2023-01-04T19:16:21.485Z,82
2023-01-04T19:20:21.445Z,82
2023-01-04T19:22:21.484Z,82
2023-01-04T19:24:21.478Z,82
2023-01-04T19:26:21.484Z,82
2023-01-04T19:28:21.462Z,82
2023-01-04T19:32:21.465Z,82
2023-01-04T19:36:21.517Z,81
2023-01-04T19:38:21.463Z,82
2023-01-04T19:40:21.491Z,82
2023-01-04T19:42:21.860Z,82
2023-01-04T19:44:21.473Z,82
2023-01-04T19:46:21.545Z,82
2023-01-04T19:48:21.452Z,81
2023-01-04T19:50:21.451Z,82
2023-01-04T19:52:21.454Z,82
2023-01-04T19:54:25.308Z,82
2023-01-04T19:56:21.475Z,82
2023-01-04T19:58:21.433Z,82
2023-01-04T20:00:21.467Z,82
2023-01-04T20:02:21.873Z,82
2023-01-04T20:04:21.556Z,82
2023-01-04T20:06:21.821Z,82
2023-01-04T20:08:21.451Z,82
2023-01-04T20:10:21.464Z,82
2023-01-04T20:12:21.442Z,82
2023-01-04T20:14:21.487Z,82
2023-01-04T20:18:21.524Z,83
2023-01-04T20:20:21.506Z,82
2023-01-04T20:22:21.467Z,82
2023-01-04T20:24:21.497Z,82
2023-01-04T20:26:21.863Z,82
2023-01-04T20:28:21.479Z,82
2023-01-04T20:30:21.529Z,82
2023-01-04T20:32:21.507Z,82
2023-01-04T20:34:21.474Z,82
2023-01-04T20:36:21.539Z,82
2023-01-04T20:38:21.482Z,82
2023-01-04T20:40:21.537Z,83
2023-01-04T20:42:21.487Z,83
2023-01-04T20:44:21.440Z,82
2023-01-04T20:46:21.682Z,83
2023-01-04T20:48:21.486Z,83
2023-01-04T20:50:21.487Z,83
2023-01-04T20:52:21.493Z,83
2023-01-04T20:54:21.719Z,83
2023-01-04T20:56:21.481Z,83
2023-01-04T20:58:21.489Z,83
2023-01-04T21:00:21.488Z,83
2023-01-04T21:02:21.715Z,83
2023-01-04T21:04:21.477Z,83
2023-01-04T21:06:21.505Z,82
2023-01-04T21:08:21.568Z,83
2023-01-04T21:10:21.489Z,83
2023-01-04T21:12:21.454Z,83
2023-01-04T21:14:21.478Z,82
2023-01-04T21:16:21.563Z,82
2023-01-04T21:18:21.504Z,82
2023-01-04T21:20:21.605Z,83
2023-01-04T21:22:21.478Z,83
2023-01-04T21:24:21.481Z,83
2023-01-04T21:26:21.478Z,83
2023-01-04T21:28:21.491Z,83
2023-01-04T21:30:21.526Z,82
2023-01-04T21:32:21.485Z,82
2023-01-04T21:34:22.924Z,83
2023-01-04T21:36:21.520Z,83
2023-01-04T21:38:21.455Z,82
2023-01-04T21:40:21.511Z,83
2023-01-04T21:42:21.505Z,83
2023-01-04T21:44:21.535Z,82
2023-01-04T21:46:21.570Z,83
2023-01-04T21:48:21.578Z,83
2023-01-04T21:50:21.521Z,83
2023-01-04T21:52:21.467Z,83
2023-01-04T21:54:21.476Z,83
2023-01-04T22:00:21.449Z,83
2023-01-04T22:02:21.555Z,83
2023-01-04T22:04:21.568Z,83
2023-01-04T22:10:21.457Z,83
2023-01-04T22:12:21.468Z,83
2023-01-04T22:14:21.546Z,83
2023-01-04T22:16:21.564Z,83
2023-01-04T22:18:21.522Z,83
2023-01-04T22:22:21.488Z,83
2023-01-04T22:24:21.478Z,83
2023-01-04T22:26:21.520Z,83
2023-01-04T22:28:21.485Z,83
2023-01-04T22:30:21.554Z,83
2023-01-04T22:32:21.735Z,83
2023-01-04T22:34:21.495Z,83
2023-01-04T22:36:23.158Z,83
2023-01-04T22:40:21.468Z,84
2023-01-04T22:42:21.437Z,84
2023-01-04T22:46:21.525Z,83
2023-01-04T22:50:21.485Z,83
2023-01-04T22:52:21.532Z,83
2023-01-04T22:54:21.503Z,83
2023-01-04T22:56:22.645Z,83
2023-01-04T23:00:21.953Z,84
2023-01-04T23:02:21.539Z,84
2023-01-04T23:04:21.585Z,83
2023-01-04T23:06:21.552Z,83
2023-01-04T23:08:21.462Z,83
2023-01-04T23:10:21.462Z,83
2023-01-04T23:12:21.468Z,83
2023-01-04T23:14:21.485Z,83
2023-01-04T23:16:24.932Z,83
2023-01-04T23:18:21.458Z,84
2023-01-04T23:20:21.589Z,83
2023-01-04T23:24:21.498Z,83
2023-01-04T23:26:21.528Z,83
2023-01-04T23:28:21.442Z,84
2023-01-04T23:30:21.521Z,84
2023-01-04T23:32:21.540Z,83
2023-01-04T23:34:21.470Z,84
2023-01-04T23:36:21.479Z,84
2023-01-04T23:38:21.496Z,84
2023-01-04T23:40:21.498Z,83
2023-01-04T23:42:21.497Z,84
2023-01-04T23:46:21.535Z,83
2023-01-04T23:48:21.528Z,84
2023-01-04T23:50:21.531Z,84
2023-01-04T23:52:21.497Z,84
2023-01-04T23:54:21.509Z,84
2023-01-04T23:56:21.548Z,84
